Station info - map view · info · telemetry · weather · raw · status · beacons · messages · bulletins · browse · moving · my account
Callsign, ship name or locator: Clear       
It is possible to search using wildcards (*?) after a prefix. Example: OH*
APRS station N4SFR-9 - show graphs
Map loading...
Comment: 146.52 MHz
Mic-E message: In service
Location: 33°46.29' N 85°52.52' W - locator EM73BS45XD - show map - static map
3.9 miles West bearing 290° from Weaver, Calhoun County, Alabama, United States [?]
5.4 miles North bearing 338° from Saks, Calhoun County, Alabama, United States
56.0 miles East bearing 72° from Birmingham, Jefferson County, Alabama, United States
77.6 miles Southeast bearing 148° from Huntsville, Madison County, Alabama, United States
Last position: 2019-01-21 15:03:50 EST (20h11m ago)
2019-01-21 14:03:50 CST local time at Weaver, United States [?]
Altitude: 571 ft
Course: 38°
Device: Kenwood: TM-D710 (rig)
Last path: N4SFR-9>S3TV2Y via AK4EJ-1,WIDE1,WB4GNA-7,WIDE2*,qAR,WX4BK-13 (good)
Positions stored: 5197
Packet rate: 374 seconds between packets on average during 3739 seconds.
Stations near current position of N4SFR-9 - show more
callsign distance last heard - EST      callsign distance last heard - EST
AK5HW1.4 miles 301°2019-01-05 14:58:45 AK4EJ-14.0 miles 109°2019-01-22 11:13:05
KG4YRU5.5 miles 60°2018-12-25 17:07:23 KM4TMA-95.8 miles 359°2019-01-22 09:50:56
KG4YRU-46.1 miles 72°2019-01-21 20:03:27 FW12726.4 miles 293°2019-01-22 11:14:36
N4TFN-77.0 miles 69°2019-01-17 11:02:53 KK4GXZ8.2 miles 191°2019-01-21 11:29:21
EW802713.4 miles 166°2019-01-22 10:47:06 DW586616.5 miles 309°2019-01-22 11:01:02
W4OWE-N17.5 miles 284°2019-01-22 09:31:58 KM4ZCX18.3 miles 56°2019-01-22 11:08:40
EW063018.7 miles 116°2019-01-22 11:01:47 KF4RGR-719.3 miles 109°2019-01-04 15:04:18
AG4AC-919.5 miles 266°2019-01-21 23:15:36 K4RBC B19.6 miles 337°2019-01-22 11:13:52
K4RBC C19.6 miles 337°2019-01-22 11:13:52 K4RBC-C19.6 miles 337°2019-01-22 11:13:36
K4RBC-B19.6 miles 337°2019-01-22 11:13:36 WB4GNA-720.1 miles 169°2019-01-22 11:07:35
Stations which heard N4SFR-9 directly on radio –
callsign pkts first heard - EST last heard longest (tx => rx) longest at - EST
N4XWC 4 2019-01-02 14:11:57 2019-01-18 11:47:25 EM73CQ > EM63NU 60.5 miles 281° 2019-01-08 10:20:39
K4TQR-1 1 2019-01-03 08:46:18 2019-01-03 08:46:18 EM73BS > EM63PN 50.6 miles 254° 2019-01-03 08:46:18
KD4CCO 6 2019-01-01 11:18:43 2019-01-01 11:42:54 EM86UN > EM86VP 9.0 miles 58° 2019-01-01 11:42:54
KG4FZR-7 5 2019-01-01 14:55:33 2019-01-01 15:11:41 EM75OG > EM75QK 17.4 miles 46° 2019-01-01 15:11:41
WB4BSD 3 2019-01-01 15:19:10 2019-01-01 15:30:36 EM75KB > EM75MD 10.8 miles 71° 2019-01-01 15:30:36
KE4OTZ-3 9 2019-01-01 12:53:57 2019-01-01 14:47:34 EM86HB > EM85BP 38.2 miles 225° 2019-01-01 12:53:57
KA4EMA-3 8 2019-01-01 15:26:43 2019-01-01 15:44:13 EM75LC > EM75IE 14.6 miles 296° 2019-01-01 15:26:43
KC4OJS-3 2 2019-01-01 14:29:21 2019-01-01 14:43:33 EM75UU > EM75TM 22.5 miles 193° 2019-01-01 14:29:21
WB4GNA-7 137 2019-01-01 17:18:36 2019-01-21 14:49:50 EM74AA > EM73CL 37.6 miles 164° 2019-01-18 11:46:56
K5OLV-2 4 2019-01-01 15:51:37 2019-01-01 16:04:28 EM74HX > EM74GU 8.6 miles 203° 2019-01-01 15:51:37
N4YH-10 2 2019-01-01 15:25:21 2019-01-01 15:26:05 EM75LD > EM75JH 16.4 miles 330° 2019-01-01 15:25:21
KJ4TDM-1 38 2019-01-01 17:02:16 2019-01-21 14:24:50 EM73CQ > EM64TE 45.2 miles 320° 2019-01-13 15:54:32
KD4BNQ-3 1 2019-01-01 10:41:49 2019-01-01 10:41:49 EM96EQ > EM97RI 76.6 miles 52° 2019-01-01 10:41:49
AK4EJ-1 124 2019-01-01 17:19:06 2019-01-21 15:03:50 EM73AX > EM73CS 19.0 miles 148° 2019-01-01 17:19:06
KF4YMC-13 6 2019-01-01 14:37:28 2019-01-01 14:53:34 EM75TR > EM75RN 15.0 miles 223° 2019-01-01 14:37:28
W4AP-2 1 2019-01-02 06:34:23 2019-01-02 06:34:23 EM63XW > EM62VM 96.4 miles 186° 2019-01-02 06:34:23
W4FXO-3 1 2019-01-01 11:20:44 2019-01-01 11:20:44 EM86WP > EM86TN 15.2 miles 245° 2019-01-01 11:20:44
N4NE-2 1 2019-01-01 17:16:39 2019-01-01 17:16:39 EM73AX > EM74WF 106.3 miles 80° 2019-01-01 17:16:39
W4DWN-5 1 2019-01-01 10:59:23 2019-01-01 10:59:23 EM96DS > EM96DT 0.7 miles 11° 2019-01-01 10:59:23
KJ4TRN-10 4 2019-01-01 11:46:41 2019-01-01 11:54:49 EM86TM > EM86RI 12.8 miles 210° 2019-01-01 11:46:41
W4GVX-10 4 2019-01-02 05:59:23 2019-01-20 12:18:17 EM73BS > EM73HX 32.4 miles 63° 2019-01-02 05:59:23
KI4HDU-3 1 2019-01-01 13:01:57 2019-01-01 13:01:57 EM85FX > EM85FW 2.5 miles 165° 2019-01-01 13:01:57
KW4BV-10 17 2019-01-01 13:05:57 2019-01-01 14:20:36 EM75WV > EM86CA 20.0 miles 68° 2019-01-01 14:20:36
WE4MB-3 3 2019-01-01 15:09:12 2019-01-01 15:17:10 EM75OH > EM75MF 11.1 miles 244° 2019-01-01 15:09:12
N4LMC-3 5 2019-01-01 15:40:29 2019-01-01 15:54:25 EM75IA > EM74HX 6.0 miles 244° 2019-01-01 15:40:29

Only position packets which were originated by the station are shown here. The range statistics show some extra long hops, because some digipeaters do not correctly add themselves to the digipeater path. Please check the raw packets.
About this site
This page shows real-time information collected from the Automatic Position Reporting System Internet network (APRS-IS). APRS is used by amateur (ham) radio operators to transmit real-time position information, weather data, telemetry and messages over the radio. A vehicle equipped with a GPS receiver, a VHF transmitter or HF transceiver and a small computer device called a tracker transmits it's location, speed and course in a small data packet, which is then received by a nearby iGate receiving site which forwards the packet on the Internet. Systems connected to the Internet can send information on the APRS-IS without a radio transmitter, or collect and display information transmitted anywhere in the world.
FAQ · Blog · Discussion group · Linking to aprs.fi · AIS sites · Service status · Database statistics · Advertising on aprs.fi · Technical details · API · Change log · Planned changes · Credits and thanks · Terms Of Service · iPhone/iPad APRS